createdAt,value
2019-05-18T00:01:54.541Z,16.67
2019-05-18T00:04:19.042Z,16.60
2019-05-18T00:06:43.839Z,16.65
2019-05-18T00:09:08.553Z,16.67
2019-05-18T00:11:33.479Z,16.78
2019-05-18T00:13:58.095Z,16.74
2019-05-18T00:16:22.672Z,16.47
2019-05-18T00:18:47.285Z,16.67
2019-05-18T00:21:11.731Z,16.72
2019-05-18T00:23:36.275Z,16.74
2019-05-18T00:26:01.102Z,16.72
2019-05-18T00:28:25.726Z,16.76
2019-05-18T00:30:50.253Z,16.66
2019-05-18T00:33:14.723Z,16.63
2019-05-18T00:35:39.167Z,16.64
2019-05-18T00:38:03.633Z,16.69
2019-05-18T00:40:28.104Z,16.38
2019-05-18T00:42:52.547Z,16.56
2019-05-18T00:45:17.248Z,16.58
2019-05-18T00:47:42.463Z,16.43
2019-05-18T00:50:07.772Z,16.49
2019-05-18T00:52:32.230Z,16.46
2019-05-18T00:54:56.784Z,16.48
2019-05-18T00:57:21.241Z,16.38
2019-05-18T00:59:45.857Z,16.35
2019-05-18T01:02:10.302Z,16.35
2019-05-18T01:04:34.779Z,16.36
2019-05-18T01:06:59.283Z,16.26
2019-05-18T01:09:23.786Z,16.38
2019-05-18T01:11:48.300Z,16.35
2019-05-18T01:14:12.773Z,16.32
2019-05-18T01:16:37.362Z,16.36
2019-05-18T01:19:01.800Z,16.29
2019-05-18T01:21:26.477Z,16.25
2019-05-18T01:23:50.919Z,16.27
2019-05-18T01:26:15.468Z,16.17
2019-05-18T01:28:39.922Z,16.16
2019-05-18T01:31:04.558Z,16.19
2019-05-18T01:33:29.041Z,16.21
2019-05-18T01:35:53.622Z,16.19
2019-05-18T01:38:18.141Z,16.18
2019-05-18T01:40:42.695Z,16.17
2019-05-18T01:43:07.291Z,16.12
2019-05-18T01:45:31.841Z,15.97
2019-05-18T01:47:56.376Z,16.02
2019-05-18T01:50:20.873Z,15.99
2019-05-18T01:52:45.420Z,15.94
2019-05-18T01:55:10.639Z,16.02
2019-05-18T01:57:35.197Z,15.93
2019-05-18T01:59:59.645Z,15.96
2019-05-18T02:02:24.111Z,15.82
2019-05-18T02:04:48.570Z,15.83
2019-05-18T02:07:13.125Z,15.82
2019-05-18T02:09:37.651Z,15.73
2019-05-18T02:12:02.206Z,15.75
2019-05-18T02:14:26.741Z,15.69
2019-05-18T02:16:51.233Z,15.69
2019-05-18T02:19:15.763Z,15.62
2019-05-18T02:21:40.317Z,15.70
2019-05-18T02:24:04.918Z,15.61
2019-05-18T02:26:29.449Z,15.69
2019-05-18T02:28:54.081Z,15.60
2019-05-18T02:31:18.699Z,15.63
2019-05-18T02:33:43.318Z,15.61
2019-05-18T02:36:07.922Z,15.58
2019-05-18T02:38:32.457Z,15.58
2019-05-18T02:40:56.944Z,15.49
2019-05-18T02:43:21.485Z,15.49
2019-05-18T02:45:46.089Z,15.45
2019-05-18T02:48:10.696Z,15.46
2019-05-18T02:50:35.219Z,15.46
2019-05-18T02:52:59.768Z,15.40
2019-05-18T02:55:24.234Z,15.34
2019-05-18T02:57:48.780Z,15.37
2019-05-18T03:00:13.500Z,15.39
2019-05-18T03:02:38.035Z,15.32
2019-05-18T03:05:02.661Z,15.33
2019-05-18T03:07:27.115Z,15.29
2019-05-18T03:09:51.591Z,15.30
2019-05-18T03:12:16.161Z,15.24
2019-05-18T03:14:40.605Z,15.22
2019-05-18T03:17:05.172Z,15.18
2019-05-18T03:19:29.697Z,15.23
2019-05-18T03:21:54.164Z,15.18
2019-05-18T03:24:18.617Z,15.17
2019-05-18T03:26:43.077Z,15.18
2019-05-18T03:29:07.673Z,15.11
2019-05-18T03:31:32.128Z,15.14
2019-05-18T03:33:56.670Z,15.11
2019-05-18T03:36:21.387Z,15.06
2019-05-18T03:38:45.867Z,15.09
2019-05-18T03:41:10.382Z,15.14
2019-05-18T03:43:34.954Z,15.06
2019-05-18T03:45:59.484Z,15.06
2019-05-18T03:48:24.453Z,15.05
2019-05-18T03:50:49.774Z,15.08
2019-05-18T03:53:18.002Z,15.03
2019-05-18T03:55:40.635Z,15.06
2019-05-18T03:58:05.212Z,15.05
2019-05-18T04:00:29.668Z,15.03
2019-05-18T04:03:05.012Z,15.02
2019-05-18T04:05:29.591Z,15.17
2019-05-18T04:07:54.176Z,15.10
2019-05-18T04:10:26.741Z,15.06
2019-05-18T04:12:51.208Z,15.15
2019-05-18T04:15:15.733Z,15.13
2019-05-18T04:17:40.227Z,15.07
2019-05-18T04:20:08.538Z,15.06
2019-05-18T04:22:33.024Z,15.12
2019-05-18T04:24:57.542Z,15.09
2019-05-18T04:27:22.013Z,15.13
2019-05-18T04:29:46.556Z,15.19
2019-05-18T04:32:11.071Z,15.19
2019-05-18T04:34:35.587Z,15.24
2019-05-18T04:37:00.034Z,15.32
2019-05-18T04:39:24.521Z,15.29
2019-05-18T04:41:48.975Z,14.95
2019-05-18T04:44:13.515Z,15.34
2019-05-18T04:46:38.113Z,15.43
2019-05-18T04:49:02.614Z,15.50
2019-05-18T04:51:27.146Z,15.36
2019-05-18T04:53:51.656Z,15.42
2019-05-18T04:56:16.077Z,15.51
2019-05-18T04:58:40.561Z,15.52
2019-05-18T05:01:05.177Z,15.55
2019-05-18T05:03:29.665Z,15.67
2019-05-18T05:05:54.144Z,15.70
2019-05-18T05:08:18.611Z,15.71
2019-05-18T05:10:43.067Z,15.80
2019-05-18T05:13:07.608Z,15.80
2019-05-18T05:15:32.169Z,15.33
2019-05-18T05:17:56.691Z,15.86
2019-05-18T05:20:21.154Z,15.96
2019-05-18T05:22:47.514Z,16.04
2019-05-18T05:25:12.147Z,15.90
2019-05-18T05:27:36.606Z,16.03
2019-05-18T05:30:01.095Z,16.14
2019-05-18T05:32:25.665Z,16.20
2019-05-18T05:34:50.206Z,16.27
2019-05-18T05:37:14.728Z,16.32
2019-05-18T05:39:39.207Z,15.97
2019-05-18T05:42:03.664Z,16.24
2019-05-18T05:44:28.133Z,16.36
2019-05-18T05:46:52.594Z,16.44
2019-05-18T05:49:17.074Z,16.55
2019-05-18T05:51:41.598Z,16.50
2019-05-18T05:54:06.073Z,16.48
2019-05-18T05:56:30.520Z,16.64
2019-05-18T05:58:55.053Z,16.61
2019-05-18T06:01:19.493Z,16.65
2019-05-18T06:03:44.834Z,16.71
2019-05-18T06:06:09.274Z,16.64
2019-05-18T06:08:34.250Z,16.74
2019-05-18T06:10:58.758Z,16.90
2019-05-18T06:13:23.580Z,16.86
2019-05-18T06:15:48.140Z,16.92
2019-05-18T06:18:12.602Z,16.94
2019-05-18T06:20:50.533Z,16.90
2019-05-18T06:23:03.378Z,17.05
2019-05-18T06:25:27.887Z,17.16
2019-05-18T06:27:52.344Z,17.03
2019-05-18T06:30:17.724Z,17.02
2019-05-18T06:32:42.246Z,17.21
2019-05-18T06:35:06.955Z,17.30
2019-05-18T06:37:31.397Z,17.34
2019-05-18T06:39:55.987Z,16.92
2019-05-18T06:42:20.436Z,17.30
2019-05-18T06:44:45.006Z,17.11
2019-05-18T06:47:09.604Z,17.26
2019-05-18T06:49:34.069Z,17.48
2019-05-18T06:51:59.366Z,17.56
2019-05-18T06:54:23.990Z,17.42
2019-05-18T06:56:48.682Z,17.44
2019-05-18T06:59:16.466Z,17.61
2019-05-18T07:01:41.045Z,17.32
2019-05-18T07:04:05.600Z,17.65
2019-05-18T07:06:30.071Z,17.69
2019-05-18T07:08:54.529Z,17.69
2019-05-18T07:11:19.073Z,17.81
2019-05-18T07:13:43.535Z,17.90
2019-05-18T07:16:08.155Z,17.84
2019-05-18T07:18:32.611Z,17.90
2019-05-18T07:21:00.016Z,17.75
2019-05-18T07:23:24.559Z,17.84
2019-05-18T07:25:49.019Z,17.91
2019-05-18T07:28:13.468Z,18.14
2019-05-18T07:30:38.158Z,18.23
2019-05-18T07:33:02.612Z,18.07
2019-05-18T07:35:27.186Z,18.29
2019-05-18T07:37:51.712Z,18.52
2019-05-18T07:40:16.289Z,18.57
2019-05-18T07:42:40.888Z,18.66
2019-05-18T07:45:08.407Z,18.13
2019-05-18T07:47:32.928Z,18.52
2019-05-18T07:49:57.395Z,18.60
2019-05-18T07:52:21.901Z,18.62
2019-05-18T07:54:46.417Z,18.76
2019-05-18T07:57:10.888Z,18.86
2019-05-18T07:59:35.352Z,18.84
2019-05-18T08:01:59.828Z,18.97
2019-05-18T08:04:24.421Z,19.20
2019-05-18T08:06:48.977Z,19.28
2019-05-18T08:09:13.426Z,19.17
2019-05-18T08:11:37.914Z,19.40
2019-05-18T08:14:02.401Z,19.31
2019-05-18T08:16:26.855Z,19.43
2019-05-18T08:18:51.387Z,19.52
2019-05-18T08:21:17.085Z,19.30
2019-05-18T08:23:42.497Z,19.53
2019-05-18T08:26:06.978Z,19.64
2019-05-18T08:28:31.438Z,19.73
2019-05-18T08:30:55.940Z,19.66
2019-05-18T08:33:20.381Z,19.82
2019-05-18T08:35:44.841Z,19.93
2019-05-18T08:38:09.293Z,19.87
2019-05-18T08:40:33.780Z,20.05
2019-05-18T08:42:58.363Z,20.18
2019-05-18T08:45:22.949Z,20.02
2019-05-18T08:47:47.492Z,20.21
2019-05-18T08:50:13.259Z,20.36
2019-05-18T08:52:37.852Z,20.45
2019-05-18T08:55:02.476Z,20.50
2019-05-18T08:57:27.358Z,20.63
2019-05-18T08:59:51.902Z,20.87
2019-05-18T09:02:16.386Z,20.86
2019-05-18T09:04:40.822Z,21.01
2019-05-18T09:07:05.472Z,20.63
2019-05-18T09:09:30.024Z,20.80
2019-05-18T09:11:54.569Z,20.89
2019-05-18T09:14:19.083Z,21.10
2019-05-18T09:16:43.554Z,21.14
2019-05-18T09:19:07.990Z,21.18
2019-05-18T09:21:32.454Z,21.29
2019-05-18T09:23:56.904Z,21.58
2019-05-18T09:26:21.374Z,21.42
2019-05-18T09:28:45.839Z,21.68
2019-05-18T09:31:10.368Z,21.78
2019-05-18T09:33:34.887Z,21.73
2019-05-18T09:35:59.364Z,21.87
2019-05-18T09:38:23.806Z,22.00
2019-05-18T09:40:48.243Z,22.17
2019-05-18T09:43:12.727Z,22.07
2019-05-18T09:45:37.194Z,22.38
2019-05-18T09:48:01.653Z,22.15
2019-05-18T09:50:26.135Z,22.27
2019-05-18T09:52:50.650Z,22.32
2019-05-18T09:55:15.880Z,22.27
2019-05-18T09:57:40.341Z,22.39
2019-05-18T10:00:10.528Z,22.48
2019-05-18T10:02:35.049Z,22.89
2019-05-18T10:04:59.497Z,22.81
2019-05-18T10:07:24.020Z,23.20
2019-05-18T10:09:48.554Z,22.74
2019-05-18T10:12:13.016Z,22.80
2019-05-18T10:14:37.523Z,23.17
2019-05-18T10:17:02.315Z,22.67
2019-05-18T10:19:26.784Z,23.11
2019-05-18T10:21:51.325Z,23.41
2019-05-18T10:24:15.918Z,23.20
2019-05-18T10:26:40.355Z,23.34
2019-05-18T10:29:05.000Z,23.72
2019-05-18T10:31:29.512Z,23.90
2019-05-18T10:33:53.955Z,23.42
2019-05-18T10:36:18.388Z,23.68
2019-05-18T10:38:42.872Z,24.02
2019-05-18T10:41:07.456Z,24.14
2019-05-18T10:43:31.959Z,24.24
2019-05-18T10:45:56.452Z,24.24
2019-05-18T10:48:20.926Z,24.35
2019-05-18T10:50:45.431Z,24.27
2019-05-18T10:53:09.969Z,24.27
2019-05-18T10:55:34.685Z,24.24
2019-05-18T10:57:59.253Z,24.24
2019-05-18T11:00:23.830Z,24.77
2019-05-18T11:02:48.438Z,25.11
2019-05-18T11:05:13.638Z,25.00
2019-05-18T11:07:38.131Z,24.62
2019-05-18T11:10:02.662Z,24.62
2019-05-18T11:12:27.114Z,25.08
2019-05-18T11:14:51.745Z,24.71
2019-05-18T11:17:16.317Z,25.09
2019-05-18T11:19:40.845Z,25.26
2019-05-18T11:22:05.435Z,25.26
2019-05-18T11:24:29.889Z,25.07
2019-05-18T11:26:54.321Z,25.05
2019-05-18T11:29:22.750Z,25.54
2019-05-18T11:31:45.012Z,25.53
2019-05-18T11:34:09.535Z,25.85
2019-05-18T11:36:33.976Z,25.73
2019-05-18T11:38:58.591Z,26.01
2019-05-18T11:41:23.151Z,26.14
2019-05-18T11:43:47.626Z,25.58
2019-05-18T11:46:12.071Z,26.08
2019-05-18T11:48:36.622Z,25.63
2019-05-18T11:51:01.147Z,26.35
2019-05-18T11:53:25.706Z,26.28
2019-05-18T11:55:50.135Z,26.50
2019-05-18T11:58:14.715Z,26.67
2019-05-18T12:00:39.345Z,26.69
2019-05-18T12:03:03.946Z,26.56
2019-05-18T12:05:28.473Z,26.68
2019-05-18T12:07:52.996Z,26.43
2019-05-18T12:10:18.532Z,26.31
2019-05-18T12:12:43.232Z,26.81
2019-05-18T12:15:09.359Z,26.66
2019-05-18T12:17:33.872Z,26.99
2019-05-18T12:19:58.334Z,27.53
2019-05-18T12:22:22.748Z,27.71
2019-05-18T12:24:47.287Z,27.53
2019-05-18T12:27:11.733Z,27.86
2019-05-18T12:29:36.230Z,26.38
2019-05-18T12:32:00.670Z,25.61
2019-05-18T12:34:26.506Z,26.76
2019-05-18T12:36:50.937Z,27.38
2019-05-18T12:39:15.458Z,27.72
2019-05-18T12:41:39.970Z,28.10
2019-05-18T12:44:04.548Z,28.02
2019-05-18T12:46:29.139Z,27.90
2019-05-18T12:48:53.927Z,28.32
2019-05-18T12:51:18.397Z,27.91
2019-05-18T12:53:42.892Z,28.01
2019-05-18T12:56:07.454Z,28.07
2019-05-18T12:58:31.896Z,27.55
2019-05-18T13:00:56.373Z,27.77
2019-05-18T13:03:20.871Z,27.82
2019-05-18T13:05:45.344Z,27.86
2019-05-18T13:08:09.845Z,27.79
2019-05-18T13:10:34.333Z,27.93
2019-05-18T13:12:58.842Z,27.62
2019-05-18T13:15:24.342Z,27.63
2019-05-18T13:17:48.951Z,27.53
2019-05-18T13:20:14.360Z,27.52
2019-05-18T13:22:38.942Z,27.65
2019-05-18T13:25:04.755Z,27.47
2019-05-18T13:27:38.728Z,27.68
2019-05-18T13:29:55.370Z,27.97
2019-05-18T13:32:19.944Z,28.13
2019-05-18T13:34:44.456Z,27.95
2019-05-18T13:37:08.919Z,28.04
2019-05-18T13:39:33.484Z,28.62
2019-05-18T13:41:57.963Z,28.49
2019-05-18T13:44:22.415Z,28.49
2019-05-18T13:46:46.888Z,28.84
2019-05-18T13:49:11.329Z,28.63
2019-05-18T13:51:35.814Z,28.45
2019-05-18T13:54:00.270Z,28.57
2019-05-18T13:56:24.787Z,27.91
2019-05-18T13:58:49.242Z,27.96
2019-05-18T14:01:13.750Z,28.55
2019-05-18T14:03:38.263Z,28.97
2019-05-18T14:06:02.734Z,29.01
2019-05-18T14:08:27.215Z,28.67
2019-05-18T14:10:51.684Z,28.69
2019-05-18T14:13:16.138Z,28.19
2019-05-18T14:15:40.673Z,27.83
2019-05-18T14:18:05.221Z,28.13
2019-05-18T14:20:29.715Z,28.35
2019-05-18T14:22:54.181Z,28.18
2019-05-18T14:25:20.307Z,28.67
2019-05-18T14:27:44.988Z,29.00
2019-05-18T14:30:10.178Z,29.08
2019-05-18T14:32:34.714Z,28.81
2019-05-18T14:34:59.289Z,29.14
2019-05-18T14:37:23.749Z,28.91
2019-05-18T14:39:48.223Z,29.02
2019-05-18T14:42:12.767Z,28.76
2019-05-18T14:44:37.402Z,28.06
2019-05-18T14:47:01.869Z,28.30
2019-05-18T14:49:26.388Z,28.63
2019-05-18T14:51:50.867Z,28.64
2019-05-18T14:54:15.334Z,28.73
2019-05-18T14:56:39.760Z,28.07
2019-05-18T14:59:04.292Z,28.33
2019-05-18T15:01:28.744Z,28.68
2019-05-18T15:03:53.276Z,28.70
2019-05-18T15:06:17.741Z,28.54
2019-05-18T15:08:42.209Z,27.55
2019-05-18T15:11:06.786Z,27.19
2019-05-18T15:13:31.317Z,28.17
2019-05-18T15:15:55.763Z,27.33
2019-05-18T15:18:20.225Z,27.13
2019-05-18T15:20:44.662Z,27.15
2019-05-18T15:23:09.257Z,27.49
2019-05-18T15:25:49.331Z,27.36
2019-05-18T15:27:59.839Z,27.48
2019-05-18T15:30:24.417Z,26.66
2019-05-18T15:32:49.031Z,27.57
2019-05-18T15:35:13.865Z,27.81
2019-05-18T15:37:39.277Z,27.13
2019-05-18T15:40:04.294Z,27.56
2019-05-18T15:42:28.834Z,27.33
2019-05-18T15:44:53.303Z,27.62
2019-05-18T15:47:17.808Z,27.59
2019-05-18T15:49:42.337Z,27.81
2019-05-18T15:52:06.791Z,27.30
2019-05-18T15:54:31.256Z,27.58
2019-05-18T15:56:55.687Z,27.76
2019-05-18T15:59:20.175Z,27.73
2019-05-18T16:01:44.680Z,27.86
2019-05-18T16:04:09.233Z,27.68
2019-05-18T16:06:33.669Z,26.38
2019-05-18T16:08:58.305Z,26.41
2019-05-18T16:11:22.746Z,27.21
2019-05-18T16:13:49.157Z,27.07
2019-05-18T16:16:13.580Z,27.73
2019-05-18T16:18:38.049Z,27.72
2019-05-18T16:21:02.595Z,27.06
2019-05-18T16:23:27.087Z,27.49
2019-05-18T16:25:51.567Z,27.12
2019-05-18T16:28:16.117Z,26.39
2019-05-18T16:30:40.613Z,26.71
2019-05-18T16:33:05.204Z,27.25
2019-05-18T16:35:29.661Z,27.36
2019-05-18T16:37:54.192Z,27.31
2019-05-18T16:40:18.858Z,27.40
2019-05-18T16:42:46.355Z,27.34
2019-05-18T16:45:10.225Z,26.78
2019-05-18T16:47:34.660Z,27.22
2019-05-18T16:49:59.121Z,27.25
2019-05-18T16:52:23.560Z,27.07
2019-05-18T16:54:48.027Z,26.04
2019-05-18T16:57:12.454Z,26.45
2019-05-18T16:59:36.941Z,26.16
2019-05-18T17:02:01.436Z,25.64
2019-05-18T17:04:25.899Z,25.90
2019-05-18T17:06:50.492Z,25.84
2019-05-18T17:09:14.952Z,26.03
2019-05-18T17:11:39.404Z,26.22
2019-05-18T17:14:04.111Z,25.65
2019-05-18T17:16:28.630Z,26.13
2019-05-18T17:18:53.118Z,25.77
2019-05-18T17:21:17.646Z,25.91
2019-05-18T17:23:42.200Z,26.46
2019-05-18T17:26:06.741Z,26.46
2019-05-18T17:28:31.231Z,26.41
2019-05-18T17:30:55.741Z,26.25
2019-05-18T17:33:20.315Z,26.39
2019-05-18T17:35:59.446Z,25.99
2019-05-18T17:38:10.988Z,26.26
2019-05-18T17:40:35.608Z,26.27
2019-05-18T17:43:00.110Z,26.34
2019-05-18T17:45:24.719Z,26.20
2019-05-18T17:47:49.287Z,26.23
2019-05-18T17:50:14.707Z,26.23
2019-05-18T17:52:39.203Z,26.16
2019-05-18T17:55:05.011Z,26.20
2019-05-18T17:57:29.617Z,26.22
2019-05-18T17:59:54.074Z,26.11
2019-05-18T18:02:18.523Z,26.14
2019-05-18T18:04:42.989Z,26.17
2019-05-18T18:07:07.430Z,25.97
2019-05-18T18:09:31.917Z,25.86
2019-05-18T18:11:56.364Z,25.52
2019-05-18T18:14:20.965Z,25.48
2019-05-18T18:16:45.599Z,25.41
2019-05-18T18:19:10.050Z,25.41
2019-05-18T18:21:34.607Z,25.53
2019-05-18T18:23:59.123Z,25.48
2019-05-18T18:26:23.582Z,25.57
2019-05-18T18:28:48.045Z,25.16
2019-05-18T18:31:12.500Z,25.01
2019-05-18T18:33:37.001Z,25.22
2019-05-18T18:36:01.474Z,25.22
2019-05-18T18:38:25.987Z,25.03
2019-05-18T18:40:50.455Z,25.17
2019-05-18T18:43:15.747Z,25.07
2019-05-18T18:45:40.285Z,25.06
2019-05-18T18:48:04.894Z,24.91
2019-05-18T18:50:29.432Z,24.90
2019-05-18T18:52:53.881Z,24.91
2019-05-18T18:55:18.418Z,24.76
2019-05-18T18:57:42.926Z,24.58
2019-05-18T19:00:08.228Z,24.59
2019-05-18T19:02:32.739Z,24.48
2019-05-18T19:04:57.314Z,24.40
2019-05-18T19:07:21.825Z,24.30
2019-05-18T19:09:46.268Z,24.27
2019-05-18T19:12:10.787Z,23.93
2019-05-18T19:14:35.254Z,23.93
2019-05-18T19:16:59.829Z,23.98
2019-05-18T19:19:24.301Z,23.74
2019-05-18T19:21:48.846Z,23.81
2019-05-18T19:24:13.294Z,23.63
2019-05-18T19:26:37.870Z,23.42
2019-05-18T19:29:02.485Z,23.45
2019-05-18T19:31:27.004Z,23.26
2019-05-18T19:33:51.508Z,22.94
2019-05-18T19:36:15.978Z,23.02
2019-05-18T19:38:40.415Z,23.09
2019-05-18T19:41:05.003Z,23.02
2019-05-18T19:43:29.508Z,22.99
2019-05-18T19:45:54.059Z,22.91
2019-05-18T19:48:18.802Z,22.89
2019-05-18T19:50:43.612Z,22.48
2019-05-18T19:53:08.250Z,22.60
2019-05-18T19:55:32.740Z,22.53
2019-05-18T19:58:08.494Z,22.54
2019-05-18T20:00:25.734Z,22.36
2019-05-18T20:02:58.103Z,22.43
2019-05-18T20:05:22.566Z,22.26
2019-05-18T20:07:47.034Z,22.03
2019-05-18T20:10:13.543Z,21.95
2019-05-18T20:12:38.057Z,22.00
2019-05-18T20:15:02.519Z,22.01
2019-05-18T20:17:26.976Z,21.89
2019-05-18T20:19:51.551Z,21.96
2019-05-18T20:22:16.206Z,21.91
2019-05-18T20:24:40.631Z,21.83
2019-05-18T20:27:05.098Z,21.81
2019-05-18T20:29:29.538Z,21.76
2019-05-18T20:31:54.075Z,21.73
2019-05-18T20:34:18.690Z,21.63
2019-05-18T20:36:43.143Z,21.70
2019-05-18T20:39:07.845Z,21.53
2019-05-18T20:41:32.297Z,21.60
2019-05-18T20:43:56.761Z,21.65
2019-05-18T20:46:21.295Z,21.48
2019-05-18T20:48:45.741Z,21.28
2019-05-18T20:51:10.349Z,21.35
2019-05-18T20:53:34.787Z,21.30
2019-05-18T20:55:59.333Z,20.81
2019-05-18T20:58:38.272Z,20.70
2019-05-18T21:00:49.991Z,20.85
2019-05-18T21:03:14.493Z,20.72
2019-05-18T21:05:38.959Z,20.76
2019-05-18T21:08:03.428Z,20.69
2019-05-18T21:10:27.947Z,20.40
2019-05-18T21:12:52.415Z,20.60
2019-05-18T21:15:17.248Z,20.30
2019-05-18T21:17:41.705Z,20.34
2019-05-18T21:20:06.589Z,20.24
2019-05-18T21:22:31.045Z,20.24
2019-05-18T21:24:55.468Z,19.16
2019-05-18T21:27:20.054Z,19.91
2019-05-18T21:29:44.488Z,20.16
2019-05-18T21:32:08.962Z,20.10
2019-05-18T21:34:33.400Z,19.91
2019-05-18T21:36:57.870Z,19.85
2019-05-18T21:39:22.325Z,19.84
2019-05-18T21:41:46.884Z,19.75
2019-05-18T21:44:11.396Z,19.57
2019-05-18T21:46:38.964Z,19.45
2019-05-18T21:49:02.109Z,19.04
2019-05-18T21:51:26.544Z,19.11
2019-05-18T21:53:51.056Z,19.08
2019-05-18T21:56:15.516Z,19.30
2019-05-18T21:58:40.095Z,19.10
2019-05-18T22:01:05.543Z,19.26
2019-05-18T22:03:30.075Z,19.16
2019-05-18T22:05:54.532Z,19.18
2019-05-18T22:08:19.085Z,19.11
2019-05-18T22:10:43.601Z,19.13
2019-05-18T22:13:08.170Z,18.94
2019-05-18T22:15:32.579Z,18.91
2019-05-18T22:18:02.891Z,18.82
2019-05-18T22:20:27.356Z,18.99
2019-05-18T22:22:51.825Z,18.70
2019-05-18T22:25:16.296Z,18.48
2019-05-18T22:27:40.769Z,18.46
2019-05-18T22:30:05.956Z,18.37
2019-05-18T22:32:30.480Z,18.10
2019-05-18T22:34:54.988Z,18.13
2019-05-18T22:37:19.534Z,18.39
2019-05-18T22:39:43.973Z,18.23
2019-05-18T22:42:08.454Z,18.24
2019-05-18T22:44:32.874Z,18.27
2019-05-18T22:46:57.435Z,18.21
2019-05-18T22:49:21.867Z,18.09
2019-05-18T22:51:46.378Z,18.36
2019-05-18T22:54:10.839Z,18.17
2019-05-18T22:56:35.375Z,17.95
2019-05-18T22:58:59.997Z,18.07
2019-05-18T23:01:24.510Z,18.04
2019-05-18T23:03:51.663Z,17.81
2019-05-18T23:06:16.620Z,17.99
2019-05-18T23:08:41.082Z,17.91
2019-05-18T23:11:05.593Z,17.84
2019-05-18T23:13:30.196Z,17.99
2019-05-18T23:15:54.660Z,18.05
2019-05-18T23:18:19.192Z,18.00
2019-05-18T23:20:43.622Z,18.08
2019-05-18T23:23:08.093Z,17.93
2019-05-18T23:25:32.537Z,17.67
2019-05-18T23:27:57.004Z,17.74
2019-05-18T23:30:21.594Z,17.76
2019-05-18T23:32:46.053Z,17.37
2019-05-18T23:35:10.636Z,17.73
2019-05-18T23:37:35.092Z,17.52
2019-05-18T23:39:59.616Z,17.65
2019-05-18T23:42:24.063Z,17.46
2019-05-18T23:44:49.395Z,17.13
2019-05-18T23:47:13.848Z,17.34
2019-05-18T23:49:38.365Z,17.28
2019-05-18T23:52:02.821Z,17.36
2019-05-18T23:54:27.306Z,17.13
2019-05-18T23:56:51.758Z,17.09
2019-05-18T23:59:16.222Z,17.11
